Robertsonville, Canada
Current Conditions -  °F | °C
As of 10:00 PM on Saturday 24 Jan 2015 (Local Time) from CYQB Reporting Station
Light Snow Light Snow  
Wind Chill: 16°   Ceiling: 1700
Heat Index: 25°   Visibility: 6mi
Dew Point: 23°   Wind: 8mph
Humidity: 93%   Direction: 230°SW
Pressure: 29.22"   Gusts: NA
Location:  46.13°N, 71.22°W
Report Text: CYQB 250300Z 23007KT 6SM -SN BR BKN017 OVC075 M04/M05 A2922 RMK SC7AC1 SLP898
Loading
Personal Weather Stations






























Interactive Weather Map New forecast layout! Learn more

10-Day Weather Forecast

Advertisements
Track Severe Weather on mobile